Time;durP1;ratioP1;P1;durP2;ratioP2;P2;SDS_P1;SDS_P2;PMS_P1;PMS_P2;Temp;Humidity;BMP_temperature;BMP_pressure;BME280_temperature;BME280_humidity;BME280_pressure;Samples;Min_cycle;Max_cycle;Signal;HPM_P1;HPM_P2
2022/04/22 00:02:24;;;;;;;5.07;4.10;;;;;;;8.86;69.26;96941.88;5015246;28;20206;-72
2022/04/22 00:04:50;;;;;;;4.93;3.90;;;;;;;8.83;69.37;96940.50;5013764;28;20202;-72
2022/04/22 00:07:17;;;;;;;5.10;4.50;;;;;;;8.83;69.25;96947.66;5014670;28;20638;-72
2022/04/22 00:09:43;;;;;;;4.93;4.43;;;;;;;8.84;69.50;96946.63;5009492;28;20211;-71
2022/04/22 00:12:10;;;;;;;5.10;4.50;;;;;;;8.80;69.81;96943.63;5015045;28;20205;-72
2022/04/22 00:14:37;;;;;;;4.73;4.33;;;;;;;8.86;69.89;96944.53;5012980;28;20204;-72
2022/04/22 00:17:03;;;;;;;4.53;4.10;;;;;;;8.86;69.67;96945.34;5014883;28;20230;-72
2022/04/22 00:19:30;;;;;;;4.30;4.00;;;;;;;8.78;70.18;96940.41;5012698;28;20206;-72
2022/04/22 00:21:56;;;;;;;4.93;4.37;;;;;;;8.78;70.02;96944.91;5015042;28;20214;-71
2022/04/22 00:24:23;;;;;;;5.60;4.90;;;;;;;8.71;70.50;96936.28;5013394;28;20206;-71
2022/04/22 00:26:49;;;;;;;5.30;4.47;;;;;;;8.66;71.38;96934.34;5014509;28;20234;-72
2022/04/22 00:29:15;;;;;;;4.90;4.40;;;;;;;8.64;71.60;96932.97;5009512;28;20203;-71
2022/04/22 00:31:42;;;;;;;5.37;4.87;;;;;;;8.69;70.95;96930.41;5011402;28;20210;-72
2022/04/22 00:34:08;;;;;;;5.00;4.43;;;;;;;8.54;71.87;96932.72;5013255;28;20206;-72
2022/04/22 00:36:35;;;;;;;6.43;4.50;;;;;;;8.47;72.43;96940.03;5014536;28;20207;-72
2022/04/22 00:39:01;;;;;;;4.80;4.30;;;;;;;8.37;72.44;96935.28;5013229;28;20210;-72
2022/04/22 00:41:28;;;;;;;5.50;5.00;;;;;;;8.45;72.25;96934.13;5014458;28;20203;-71
2022/04/22 00:43:55;;;;;;;5.43;4.73;;;;;;;8.39;72.50;96927.94;5011265;28;20209;-72
2022/04/22 00:46:21;;;;;;;4.70;4.30;;;;;;;8.31;73.58;96932.75;5014404;28;20257;-71
2022/04/22 00:48:48;;;;;;;4.83;4.43;;;;;;;8.38;72.68;96928.94;5012934;28;20592;-71
2022/04/22 00:51:14;;;;;;;6.73;5.17;;;;;;;8.42;73.47;96924.03;5012753;28;20213;-71
2022/04/22 00:53:43;;;;;;;4.80;4.40;;;;;;;8.34;73.44;96921.72;5007030;28;20226;-71
2022/04/22 00:56:11;;;;;;;5.70;5.10;;;;;;;8.28;73.11;96910.22;4994765;28;20204;-72
2022/04/22 00:58:43;;;;;;;5.10;4.50;;;;;;;8.28;73.04;96918.16;5000047;28;20567;-72
2022/04/22 01:01:11;;;;;;;5.00;4.50;;;;;;;8.19;73.47;96911.56;5010878;28;20205;-72
2022/04/22 01:03:38;;;;;;;5.03;4.43;;;;;;;8.24;73.73;96908.28;5014236;28;20211;-71
2022/04/22 01:11:35;;;;;;;5.83;5.30;;;;;;;8.39;73.03;96898.00;5011295;28;20206;-71
2022/04/22 01:14:06;;;;;;;5.70;5.13;;;;;;;8.26;73.11;96909.66;5012746;28;20207;-71
2022/04/22 01:16:34;;;;;;;5.40;4.90;;;;;;;8.22;73.36;96905.03;5013924;28;20198;-72
2022/04/22 01:19:00;;;;;;;6.60;5.70;;;;;;;8.01;74.22;96893.16;5012700;28;20199;-72
2022/04/22 01:21:26;;;;;;;7.23;6.10;;;;;;;7.83;75.35;96895.13;5014025;28;20209;-71
2022/04/22 01:23:53;;;;;;;6.07;5.47;;;;;;;7.78;75.75;96892.38;5010396;28;20225;-69
2022/04/22 01:26:20;;;;;;;6.87;5.77;;;;;;;7.81;75.78;96882.13;4994160;28;20241;-69
2022/04/22 01:28:47;;;;;;;6.70;6.10;;;;;;;7.92;75.21;96880.53;4993190;28;20241;-69
2022/04/22 01:31:13;;;;;;;8.53;6.63;;;;;;;7.91;75.39;96871.75;5008017;28;20210;-69
2022/04/22 01:33:40;;;;;;;6.80;6.17;;;;;;;7.99;75.17;96873.25;5012337;28;20206;-69
2022/04/22 01:36:07;;;;;;;7.63;6.30;;;;;;;8.05;75.18;96867.84;5013711;28;20203;-72
2022/04/22 01:38:33;;;;;;;7.67;6.17;;;;;;;8.01;75.39;96868.56;5010102;28;20246;-69
2022/04/22 01:40:59;;;;;;;7.13;6.43;;;;;;;7.87;75.80;96872.47;5013762;28;20229;-69
2022/04/22 01:43:26;;;;;;;7.87;6.60;;;;;;;7.83;75.96;96866.03;5012345;28;20210;-69
2022/04/22 01:45:53;;;;;;;7.53;6.80;;;;;;;7.78;76.64;96863.28;5014023;28;20206;-69
2022/04/22 01:48:20;;;;;;;7.47;6.57;;;;;;;7.72;76.61;96864.97;5012925;28;20234;-69
2022/04/22 01:50:46;;;;;;;8.50;6.90;;;;;;;7.67;77.35;96848.19;5013108;28;20210;-69
2022/04/22 01:53:13;;;;;;;8.20;7.40;;;;;;;7.68;77.51;96842.66;5013620;28;20202;-69
2022/04/22 01:55:39;;;;;;;8.63;7.80;;;;;;;7.75;77.04;96845.19;5008190;28;20213;-72
2022/04/22 01:58:05;;;;;;;9.13;7.77;;;;;;;7.79;77.12;96838.41;5013709;28;20223;-69
2022/04/22 02:00:32;;;;;;;8.63;7.70;;;;;;;7.80;76.96;96840.03;5010095;28;20211;-69
2022/04/22 02:02:58;;;;;;;8.47;7.57;;;;;;;7.76;76.96;96839.69;5013604;28;20210;-69
2022/04/22 02:05:24;;;;;;;8.23;7.33;;;;;;;7.79;77.38;96835.78;5012108;28;20233;-69
2022/04/22 02:07:51;;;;;;;8.13;7.30;;;;;;;7.88;76.83;96839.69;5013379;28;20230;-69
2022/04/22 02:10:17;;;;;;;9.13;8.10;;;;;;;7.83;76.93;96836.94;4997645;28;20204;-69
2022/04/22 02:12:44;;;;;;;9.23;8.33;;;;;;;7.88;76.90;96835.19;5002424;28;20633;-70
2022/04/22 02:15:11;;;;;;;8.80;7.90;;;;;;;7.81;77.01;96837.16;5009020;28;20207;-69
2022/04/22 02:17:38;;;;;;;9.33;8.27;;;;;;;7.95;76.60;96837.69;5013491;28;20313;-69
2022/04/22 02:20:04;;;;;;;7.90;7.13;;;;;;;8.00;76.15;96835.97;5013679;28;20218;-71
2022/04/22 02:22:31;;;;;;;9.67;7.97;;;;;;;7.87;76.37;96833.56;5017709;28;20223;-71
2022/04/22 02:24:59;;;;;;;9.63;7.90;;;;;;;7.70;76.82;96834.50;5015681;28;20232;-71
2022/04/22 02:30:10;;;;;;;8.20;7.40;;;;;;;7.67;77.27;96824.38;5010346;28;20197;-71
2022/04/22 02:32:36;;;;;;;8.50;7.60;;;;;;;7.62;77.59;96819.78;5016644;28;20574;-71
2022/04/22 02:35:03;;;;;;;9.93;7.90;;;;;;;7.63;77.53;96817.94;5015703;28;20545;-69
2022/04/22 02:37:29;;;;;;;9.90;7.90;;;;;;;7.66;77.43;96820.94;5016809;28;20273;-68
2022/04/22 02:39:55;;;;;;;8.43;7.63;;;;;;;7.59;78.55;96814.94;5015392;28;20210;-69
2022/04/22 02:47:51;;;;;;;10.80;7.87;;;;;;;7.55;77.88;96813.00;5016295;28;20217;-69
2022/04/22 02:50:17;;;;;;;9.90;7.93;;;;;;;7.48;78.94;96807.03;5014535;28;20210;-69
2022/04/22 02:52:43;;;;;;;10.47;8.87;;;;;;;7.56;78.89;96799.53;4997559;28;20203;-69
2022/04/22 02:55:10;;;;;;;9.27;8.47;;;;;;;7.54;78.24;96801.63;5008672;28;20203;-69
2022/04/22 02:57:36;;;;;;;9.83;8.83;;;;;;;7.45;79.03;96799.53;5016401;28;20218;-69
2022/04/22 03:00:03;;;;;;;10.20;9.10;;;;;;;7.39;79.03;96787.25;5014586;28;20214;-69
2022/04/22 03:02:30;;;;;;;9.93;8.60;;;;;;;7.37;79.10;96790.13;5014993;28;20210;-69
2022/04/22 03:04:56;;;;;;;11.10;9.93;;;;;;;7.40;79.19;96788.84;5014972;28;20207;-69
2022/04/22 03:07:22;;;;;;;10.87;9.27;;;;;;;7.43;79.24;96794.47;5016065;28;20237;-69
2022/04/22 03:09:49;;;;;;;10.00;8.97;;;;;;;7.26;79.83;96803.31;5014524;28;20217;-69
2022/04/22 03:12:16;;;;;;;11.07;9.63;;;;;;;7.24;80.29;96795.63;5016101;28;20210;-69
2022/04/22 03:14:44;;;;;;;10.77;9.70;;;;;;;7.17;80.86;96794.13;5010031;28;20210;-69
2022/04/22 03:17:10;;;;;;;10.53;9.43;;;;;;;7.17;80.74;96794.94;5016002;28;20226;-69
2022/04/22 03:19:36;;;;;;;11.50;10.30;;;;;;;7.02;81.35;96793.75;5014559;28;20207;-69
2022/04/22 03:22:03;;;;;;;12.97;10.70;;;;;;;6.92;82.37;96791.66;5015677;28;20206;-69
2022/04/22 03:24:29;;;;;;;12.90;10.80;;;;;;;7.02;82.48;96786.63;5014623;28;20202;-69
2022/04/22 03:26:55;;;;;;;12.97;10.57;;;;;;;7.01;82.17;96785.00;5015678;28;20247;-69
2022/04/22 03:29:22;;;;;;;14.37;11.27;;;;;;;7.11;82.23;96779.19;5014369;28;20198;-71
2022/04/22 03:31:48;;;;;;;12.13;10.83;;;;;;;6.98;82.10;96772.28;5010246;28;20203;-71
2022/04/22 03:34:14;;;;;;;15.67;11.67;;;;;;;7.00;82.80;96777.31;5015107;28;20586;-71
2022/04/22 03:36:41;;;;;;;15.57;12.10;;;;;;;6.99;82.90;96775.69;5015561;28;20293;-71
2022/04/22 03:39:09;;;;;;;16.03;13.10;;;;;;;6.94;83.01;96789.63;5014248;28;20206;-71
2022/04/22 03:41:36;;;;;;;14.53;12.50;;;;;;;6.97;83.18;96788.34;5015581;28;20252;-71
2022/04/22 03:44:03;;;;;;;15.07;13.47;;;;;;;6.88;83.76;96787.84;5014414;28;20206;-71
2022/04/22 03:46:30;;;;;;;16.80;13.47;;;;;;;6.90;83.85;96782.34;4995800;28;20211;-71
2022/04/22 03:49:00;;;;;;;15.70;14.10;;;;;;;6.94;84.11;96783.50;4995658;28;20223;-71
2022/04/22 03:51:29;;;;;;;14.70;13.03;;;;;;;6.91;83.82;96776.03;4994205;28;20195;-71
2022/04/22 03:53:56;;;;;;;16.97;14.97;;;;;;;6.85;84.14;96774.31;4995848;28;20207;-71
2022/04/22 03:59:06;;;;;;;15.90;14.20;;;;;;;6.78;84.80;96770.97;5015035;28;20170;-69
2022/04/22 04:01:33;;;;;;;15.70;14.10;;;;;;;6.75;84.47;96772.19;5005500;28;20218;-69
2022/04/22 04:04:01;;;;;;;16.77;14.97;;;;;;;6.71;85.01;96773.72;5004057;28;20210;-69
2022/04/22 04:06:27;;;;;;;16.00;13.33;;;;;;;6.96;83.88;96779.59;5012161;28;20226;-69
2022/04/22 04:17:03;;;;;;;14.87;13.37;;;;;;;6.74;84.89;96770.59;5014915;28;20205;-70
2022/04/22 04:24:56;;;;;;;15.83;12.97;;;;;;;6.74;84.33;96770.59;4994844;28;20198;-70
2022/04/22 04:27:23;;;;;;;13.27;11.80;;;;;;;6.76;84.53;96775.66;4994829;28;20231;-69
2022/04/22 04:29:49;;;;;;;14.53;11.60;;;;;;;6.65;85.08;96779.09;4994206;28;20207;-69
2022/04/22 04:32:17;;;;;;;13.83;12.37;;;;;;;6.74;84.57;96778.50;4999493;28;20729;-69
2022/04/22 04:34:44;;;;;;;13.10;11.57;;;;;;;6.83;83.65;96776.38;5014893;28;20257;-69
2022/04/22 04:37:11;;;;;;;14.10;12.17;;;;;;;6.88;83.90;96781.78;5012574;28;20333;-70
2022/04/22 04:39:37;;;;;;;15.50;12.60;;;;;;;6.83;84.16;96784.31;5013725;28;20203;-69
2022/04/22 04:42:04;;;;;;;17.17;13.10;;;;;;;6.77;84.61;96788.63;5012264;28;20206;-71
2022/04/22 04:44:30;;;;;;;14.90;13.30;;;;;;;6.85;84.76;96776.94;5013897;28;20618;-71
2022/04/22 04:46:56;;;;;;;13.80;12.30;;;;;;;6.85;83.76;96776.94;5005734;28;20249;-71
2022/04/22 04:49:23;;;;;;;16.37;12.13;;;;;;;6.83;83.59;96779.81;5014196;28;20211;-72
2022/04/22 04:51:49;;;;;;;13.97;11.40;;;;;;;6.87;83.33;96782.81;5012797;28;20225;-71
2022/04/22 04:54:15;;;;;;;14.93;12.03;;;;;;;6.82;83.68;96785.31;5014102;28;20692;-71
2022/04/22 04:56:41;;;;;;;16.83;13.13;;;;;;;6.75;83.84;96785.41;5012329;28;20211;-71
2022/04/22 04:59:08;;;;;;;16.03;12.93;;;;;;;6.74;84.20;96785.66;5014185;28;20218;-71
2022/04/22 05:01:34;;;;;;;19.23;12.27;;;;;;;6.79;84.14;96791.84;5006336;28;20208;-71
2022/04/22 05:04:00;;;;;;;15.13;12.73;;;;;;;6.89;84.00;96783.38;4993891;28;20214;-71
2022/04/22 05:06:27;;;;;;;16.53;13.63;;;;;;;6.91;84.07;96789.22;4999832;28;20213;-72
2022/04/22 05:08:54;;;;;;;20.87;13.50;;;;;;;6.92;83.56;96785.59;5013757;28;20230;-70
2022/04/22 05:11:20;;;;;;;15.33;13.00;;;;;;;6.93;83.93;96781.91;5012438;28;20202;-69
2022/04/22 05:13:47;;;;;;;16.50;12.33;;;;;;;7.05;82.99;96785.34;5012014;28;20218;-69
2022/04/22 05:16:13;;;;;;;17.17;13.63;;;;;;;7.07;83.14;96778.84;5010623;28;20212;-70
2022/04/22 05:18:40;;;;;;;15.63;13.87;;;;;;;6.88;83.52;96777.28;5013327;28;20222;-69
2022/04/22 05:21:06;;;;;;;17.77;14.37;;;;;;;6.81;84.37;96767.84;5011747;28;20213;-70
2022/04/22 05:23:33;;;;;;;15.37;13.73;;;;;;;6.85;83.67;96769.84;5013458;28;20206;-69
2022/04/22 05:26:01;;;;;;;15.43;13.17;;;;;;;7.23;82.55;96772.06;5009894;28;20206;-69
2022/04/22 05:28:29;;;;;;;17.30;13.00;;;;;;;7.05;82.54;96777.44;4993560;28;20258;-69
2022/04/22 05:33:39;;;;;;;16.10;12.73;;;;;;;7.09;82.40;96776.75;4994021;28;20638;-69
2022/04/22 05:36:06;;;;;;;15.87;13.43;;;;;;;7.09;82.74;96775.94;4993569;28;20297;-69
2022/04/22 05:38:34;;;;;;;15.50;13.60;;;;;;;7.22;82.18;96784.47;4993390;28;20278;-70
2022/04/22 05:41:00;;;;;;;15.03;12.30;;;;;;;7.24;82.18;96781.63;4993216;28;20667;-70
2022/04/22 05:43:28;;;;;;;19.27;15.33;;;;;;;7.53;81.86;96778.03;5007222;28;20203;-70
2022/04/22 05:45:55;;;;;;;20.73;16.40;;;;;;;7.40;81.83;96776.44;5013197;28;20209;-70
2022/04/22 05:48:21;;;;;;;19.33;16.20;;;;;;;7.64;81.44;96780.69;5011630;28;20686;-69
2022/04/22 05:50:47;;;;;;;20.10;16.43;;;;;;;7.45;82.20;96781.84;5013496;28;20238;-69
2022/04/22 05:53:14;;;;;;;18.80;16.20;;;;;;;7.71;81.02;96781.38;5012131;28;20207;-69
2022/04/22 05:55:40;;;;;;;17.57;15.60;;;;;;;7.76;81.04;96775.38;5014035;28;20208;-69
2022/04/22 05:58:06;;;;;;;18.63;16.43;;;;;;;7.92;80.96;96772.81;5013106;28;20218;-70
2022/04/22 06:00:33;;;;;;;18.93;16.93;;;;;;;8.00;79.20;96769.00;5015602;28;20218;-70
2022/04/22 06:03:00;;;;;;;20.03;17.10;;;;;;;7.91;80.54;96773.88;5015466;28;20684;-71
2022/04/22 06:05:27;;;;;;;21.37;18.07;;;;;;;7.84;80.15;96767.91;5017224;28;20206;-72
2022/04/22 06:10:35;;;;;;;19.77;16.93;;;;;;;8.33;79.32;96772.63;5016723;28;20241;-69
2022/04/22 06:13:03;;;;;;;19.27;17.27;;;;;;;8.37;78.74;96770.34;5015512;28;20554;-69
2022/04/22 06:15:30;;;;;;;19.90;16.97;;;;;;;7.83;80.45;96766.28;5017118;28;20211;-70
2022/04/22 06:17:57;;;;;;;20.40;18.10;;;;;;;8.23;79.71;96769.00;5015418;28;20234;-69
2022/04/22 06:20:24;;;;;;;20.50;17.90;;;;;;;8.45;78.76;96762.81;5015015;28;20214;-71
2022/04/22 06:22:50;;;;;;;20.03;17.93;;;;;;;8.36;78.65;96758.94;5015429;28;20202;-69
2022/04/22 06:25:17;;;;;;;22.50;18.23;;;;;;;8.42;78.62;96765.13;5014311;28;20207;-69
2022/04/22 06:27:45;;;;;;;22.37;19.57;;;;;;;8.38;79.09;96764.00;5013875;28;20305;-71
2022/04/22 06:30:19;;;;;;;19.80;17.80;;;;;;;8.57;77.40;96766.22;5016515;28;20210;-70
2022/04/22 06:32:56;;;;;;;21.37;18.23;;;;;;;8.59;78.27;96768.59;5013924;28;20257;-70
2022/04/22 06:35:44;;;;;;;23.83;19.70;;;;;;;8.55;78.82;96767.50;5017514;28;20272;-70
2022/04/22 06:38:29;;;;;;;21.37;19.07;;;;;;;8.62;78.29;96765.50;5009254;28;20222;-71
2022/04/22 06:46:50;;;;;;;20.53;18.07;;;;;;;9.13;76.18;96757.34;5002253;23;20230;-69
2022/04/22 06:49:17;;;;;;;20.73;18.63;;;;;;;9.20;75.87;96756.19;4977483;28;20212;-71
2022/04/22 06:51:43;;;;;;;18.97;17.07;;;;;;;9.19;75.33;96743.16;4979249;28;20689;-71
2022/04/22 06:54:10;;;;;;;20.67;17.60;;;;;;;9.18;75.40;96752.13;4977314;28;20215;-71
2022/04/22 06:56:40;;;;;;;20.37;18.23;;;;;;;9.53;75.20;96750.03;4975976;28;20204;-71
2022/04/22 06:59:08;;;;;;;21.13;18.87;;;;;;;9.39;75.38;96744.28;4957837;28;20201;-71
2022/04/22 07:01:36;;;;;;;21.10;18.90;;;;;;;9.46;75.04;96752.06;4967663;28;20570;-71
2022/04/22 07:04:03;;;;;;;20.47;18.07;;;;;;;9.56;74.29;96746.91;4976840;28;20227;-71
2022/04/22 07:06:31;;;;;;;23.17;18.10;;;;;;;9.26;74.42;96739.28;4976947;28;20204;-71
2022/04/22 07:08:58;;;;;;;19.93;17.83;;;;;;;9.63;75.01;96743.00;4973308;28;20722;-71
2022/04/22 07:11:26;;;;;;;22.10;18.50;;;;;;;9.65;73.08;96742.78;4976004;28;20212;-72
2022/04/22 07:13:58;;;;;;;20.50;18.40;;;;;;;9.71;74.37;96744.44;4975470;28;20216;-71
2022/04/22 07:16:24;;;;;;;19.23;17.23;;;;;;;9.65;72.69;96740.91;4973541;28;20223;-71
2022/04/22 07:18:52;;;;;;;20.67;18.50;;;;;;;9.71;73.49;96745.25;4964361;28;20221;-71
2022/04/22 07:21:18;;;;;;;21.43;19.10;;;;;;;9.76;72.41;96741.84;4969940;28;20295;-71
2022/04/22 07:23:45;;;;;;;18.93;16.87;;;;;;;10.00;72.69;96735.28;4964249;28;20209;-71
2022/04/22 07:26:12;;;;;;;20.37;18.27;;;;;;;9.62;73.32;96741.41;4959948;28;20213;-71
2022/04/22 07:28:39;;;;;;;20.90;18.67;;;;;;;9.72;72.53;96738.06;4975520;28;20239;-71
2022/04/22 07:31:09;;;;;;;20.60;18.23;;;;;;;9.85;72.83;96733.22;4974908;28;20207;-71
2022/04/22 07:33:36;;;;;;;20.50;18.37;;;;;;;9.94;72.57;96730.94;4976893;28;20223;-72
2022/04/22 07:36:02;;;;;;;20.93;18.73;;;;;;;10.34;69.21;96731.44;4975602;28;20214;-71
2022/04/22 07:38:29;;;;;;;19.33;17.33;;;;;;;10.41;70.08;96722.22;4976459;28;20224;-71
2022/04/22 07:40:55;;;;;;;19.73;17.63;;;;;;;10.46;71.77;96724.94;4974750;28;20278;-71
2022/04/22 07:48:53;;;;;;;21.00;18.20;;;;;;;10.49;70.39;96728.94;4974953;28;20243;-71
2022/04/22 07:51:20;;;;;;;20.23;18.20;;;;;;;10.82;70.01;96726.88;4975251;28;20204;-72
2022/04/22 07:53:47;;;;;;;19.13;17.17;;;;;;;10.76;69.25;96740.38;4974430;28;20208;-71
2022/04/22 07:56:13;;;;;;;19.83;17.53;;;;;;;10.81;70.13;96719.97;4973101;28;20208;-72
2022/04/22 07:58:40;;;;;;;18.80;16.90;;;;;;;10.92;68.96;96728.84;4975093;28;20224;-71
2022/04/22 08:01:06;;;;;;;19.27;17.27;;;;;;;10.98;68.75;96730.47;4976086;28;20220;-72
2022/04/22 08:03:33;;;;;;;18.93;17.00;;;;;;;10.99;67.86;96724.91;4975928;28;20208;-71
2022/04/22 08:06:00;;;;;;;18.43;16.53;;;;;;;11.14;66.83;96724.25;4974439;28;20733;-71
2022/04/22 08:08:28;;;;;;;18.57;16.67;;;;;;;11.09;67.57;96709.03;4974671;28;20238;-71
2022/04/22 08:10:56;;;;;;;18.77;16.87;;;;;;;10.91;68.23;96721.94;4976006;28;20211;-71
2022/04/22 08:13:24;;;;;;;18.93;16.67;;;;;;;11.07;67.45;96714.88;4974378;28;20640;-71
2022/04/22 08:15:50;;;;;;;18.93;17.03;;;;;;;10.98;67.42;96714.53;4975583;28;20744;-71
2022/04/22 08:18:16;;;;;;;19.20;17.17;;;;;;;11.04;69.87;96716.97;4974222;28;20241;-71
2022/04/22 08:20:43;;;;;;;18.33;16.43;;;;;;;10.60;67.79;96704.09;4975413;28;20219;-71
2022/04/22 08:23:09;;;;;;;19.30;17.30;;;;;;;10.71;69.18;96711.09;4972634;28;20212;-70
2022/04/22 08:25:35;;;;;;;18.23;16.30;;;;;;;11.00;67.60;96715.09;4975042;28;20216;-71
2022/04/22 08:28:03;;;;;;;19.40;17.13;;;;;;;11.10;67.61;96707.19;4972796;28;20249;-72
2022/04/22 08:30:29;;;;;;;18.00;16.30;;;;;;;10.98;68.30;96706.56;4973561;28;20236;-71
2022/04/22 08:32:56;;;;;;;18.03;16.33;;;;;;;11.46;65.86;96703.72;4970343;28;20208;-75
2022/04/22 08:35:24;;;;;;;16.77;15.13;;;;;;;11.42;65.42;96702.63;4971896;28;20204;-70
2022/04/22 08:37:50;;;;;;;16.90;15.30;;;;;;;11.42;65.01;96699.97;4973548;28;20228;-70
2022/04/22 08:40:16;;;;;;;19.63;16.00;;;;;;;11.34;65.09;96700.44;4973316;28;20208;-71
2022/04/22 08:42:43;;;;;;;17.97;16.00;;;;;;;11.59;65.45;96697.94;4974094;28;20234;-71
2022/04/22 08:45:11;;;;;;;18.27;16.37;;;;;;;11.87;64.15;96688.78;4973686;28;20624;-71
2022/04/22 08:50:24;;;;;;;17.03;15.33;;;;;;;11.13;65.90;96683.53;4974698;28;20537;-71
2022/04/22 08:53:12;;;;;;;17.37;15.57;;;;;;;11.75;65.39;96686.34;4975298;28;20208;-71
2022/04/22 08:55:42;;;;;;;16.60;14.90;;;;;;;11.89;64.07;96686.69;4975079;28;20194;-71
2022/04/22 08:58:10;;;;;;;16.37;14.77;;;;;;;11.54;64.50;96684.63;4974730;28;20232;-71
2022/04/22 09:00:40;;;;;;;17.23;15.53;;;;;;;12.02;63.48;96684.31;4972920;28;20301;-71
2022/04/22 09:03:09;;;;;;;16.90;15.30;;;;;;;12.29;64.41;96687.63;4974845;28;20247;-71
2022/04/22 09:05:35;;;;;;;17.83;15.43;;;;;;;12.47;63.28;96688.97;4975016;28;20285;-71
2022/04/22 09:08:02;;;;;;;16.90;15.10;;;;;;;11.57;63.49;96673.44;4974389;28;20278;-71
2022/04/22 09:10:29;;;;;;;17.20;15.37;;;;;;;12.11;63.84;96674.78;4973861;28;20218;-71
2022/04/22 09:12:57;;;;;;;16.13;14.60;;;;;;;12.58;63.51;96678.09;4974714;28;20208;-71
2022/04/22 09:15:33;;;;;;;17.43;15.07;;;;;;;12.90;61.40;96675.19;4974619;28;20259;-71
2022/04/22 09:18:10;;;;;;;15.80;14.13;;;;;;;13.09;61.39;96669.06;4974311;28;20227;-71
2022/04/22 09:20:36;;;;;;;15.93;14.33;;;;;;;13.06;60.33;96671.50;4970926;28;20263;-71
2022/04/22 09:23:05;;;;;;;15.17;13.23;;;;;;;13.23;60.60;96656.78;4971305;28;20200;-71
2022/04/22 09:25:44;;;;;;;15.93;14.27;;;;;;;13.36;59.74;96658.91;4974783;28;20240;-71
2022/04/22 09:28:11;;;;;;;15.70;14.00;;;;;;;13.63;59.01;96659.38;4974336;28;20236;-72
2022/04/22 09:30:37;;;;;;;16.63;15.03;;;;;;;13.15;59.15;96657.31;4974309;28;20565;-72
2022/04/22 09:33:04;;;;;;;16.53;14.87;;;;;;;13.19;60.47;96654.91;4974480;28;20221;-72
2022/04/22 09:42:38;;;;;;;16.60;15.07;;;;;;;13.28;60.01;96648.78;4974670;28;20215;-72
2022/04/22 09:43:58;;;;;;;15.70;14.10;;;;;;;13.53;57.55;96640.72;4974416;28;20181;-70
2022/04/22 09:46:30;;;;;;;14.80;13.33;;;;;;;13.72;57.72;96641.72;4974402;28;20721;-72
2022/04/22 09:48:57;;;;;;;15.77;14.27;;;;;;;13.54;57.91;96641.50;4973779;28;20260;-70
2022/04/22 09:51:31;;;;;;;14.83;13.03;;;;;;;13.73;58.18;96647.84;4974149;28;20215;-69
2022/04/22 09:54:05;;;;;;;16.10;14.40;;;;;;;13.21;58.17;96636.78;4973374;28;20258;-70
2022/04/22 09:56:33;;;;;;;15.73;14.23;;;;;;;13.24;57.83;96631.69;4973884;28;20600;-70
2022/04/22 09:59:00;;;;;;;15.40;13.80;;;;;;;13.27;58.37;96636.50;4974084;28;20251;-70
2022/04/22 10:01:27;;;;;;;15.60;14.00;;;;;;;13.61;58.99;96640.13;4973196;28;20218;-70
2022/04/22 10:03:55;;;;;;;14.17;12.77;;;;;;;14.22;57.97;96636.19;4974276;28;20567;-70
2022/04/22 10:06:21;;;;;;;12.73;11.57;;;;;;;14.33;54.41;96635.03;4974332;28;20218;-70
2022/04/22 10:08:51;;;;;;;13.63;12.23;;;;;;;14.46;55.74;96629.06;4972733;28;20231;-70
2022/04/22 10:11:19;;;;;;;15.03;12.80;;;;;;;14.65;54.66;96627.34;4972976;28;20208;-70
2022/04/22 10:13:47;;;;;;;13.23;11.93;;;;;;;14.55;55.36;96643.47;4974164;28;20218;-71
2022/04/22 10:16:14;;;;;;;13.53;12.23;;;;;;;14.37;54.65;96635.28;4971628;28;20250;-70
2022/04/22 10:18:44;;;;;;;13.27;12.07;;;;;;;14.00;54.37;96634.91;4972798;28;20226;-71
2022/04/22 10:21:11;;;;;;;13.37;12.07;;;;;;;14.02;55.54;96630.91;4974141;28;20215;-70
2022/04/22 10:23:38;;;;;;;13.53;12.30;;;;;;;14.47;56.34;96632.56;4974018;28;20212;-70
2022/04/22 10:26:05;;;;;;;11.70;10.70;;;;;;;14.54;56.06;96623.16;4974281;28;20309;-71
2022/04/22 10:28:32;;;;;;;12.40;11.27;;;;;;;14.95;54.59;96631.66;4973686;28;20234;-71
2022/04/22 10:31:03;;;;;;;13.00;11.60;;;;;;;14.79;53.44;96620.25;4972938;28;20204;-70
2022/04/22 10:33:46;;;;;;;12.87;11.53;;;;;;;15.32;55.02;96616.56;4973926;28;20294;-70
2022/04/22 10:36:15;;;;;;;13.70;12.40;;;;;;;15.32;51.21;96615.75;4973708;28;20211;-70
2022/04/22 10:38:43;;;;;;;13.10;11.90;;;;;;;15.84;51.62;96613.88;4973749;28;20235;-71
2022/04/22 10:41:18;;;;;;;14.43;13.03;;;;;;;15.83;52.59;96624.91;4975083;28;20639;-70
2022/04/22 10:49:17;;;;;;;15.97;13.70;;;;;;;16.13;50.49;96617.25;4977301;28;20247;-70
2022/04/22 10:52:09;;;;;;;14.13;12.73;;;;;;;14.85;53.14;96610.31;4977436;28;20298;-70
2022/04/22 10:54:54;;;;;;;14.60;13.20;;;;;;;15.13;53.21;96607.66;4977481;28;20196;-71
2022/04/22 10:57:25;;;;;;;13.87;12.57;;;;;;;15.38;52.15;96599.41;4977051;28;20235;-70
2022/04/22 11:00:04;;;;;;;15.00;13.60;;;;;;;15.28;52.86;96607.50;4977521;28;20208;-71
2022/04/22 11:02:35;;;;;;;14.23;12.93;;;;;;;15.40;53.36;96609.84;4974165;28;20621;-71
2022/04/22 11:05:17;;;;;;;14.87;13.53;;;;;;;15.41;53.04;96596.16;4977171;28;20192;-70
2022/04/22 11:07:53;;;;;;;15.33;13.90;;;;;;;15.55;53.12;96591.72;4976790;28;20282;-70
2022/04/22 11:10:20;;;;;;;15.10;13.53;;;;;;;14.73;53.62;96591.97;4976769;28;20251;-71
2022/04/22 11:12:54;;;;;;;15.77;14.37;;;;;;;14.89;54.82;96592.63;4977136;28;20215;-70
2022/04/22 11:15:47;;;;;;;15.83;14.33;;;;;;;15.27;54.41;96581.81;4975365;28;20286;-70
2022/04/22 11:18:15;;;;;;;14.43;13.07;;;;;;;15.44;52.60;96592.13;4976825;28;20255;-71
2022/04/22 11:20:45;;;;;;;14.83;13.43;;;;;;;15.52;53.08;96592.28;4975305;28;20211;-71
2022/04/22 11:23:16;;;;;;;14.07;12.77;;;;;;;15.24;53.59;96590.41;4976400;28;20550;-70
2022/04/22 11:25:44;;;;;;;15.20;13.60;;;;;;;15.68;53.73;96592.91;4976842;28;20223;-70
2022/04/22 11:28:12;;;;;;;14.10;12.70;;;;;;;15.55;52.40;96586.34;4976499;28;20235;-71
2022/04/22 11:30:39;;;;;;;16.63;12.67;;;;;;;14.84;53.38;96588.13;4976562;28;20224;-70
2022/04/22 11:33:20;;;;;;;14.27;12.47;;;;;;;14.96;55.03;96591.22;4974915;28;20626;-70
2022/04/22 11:35:50;;;;;;;14.73;13.17;;;;;;;15.17;54.16;96592.66;4973614;28;20216;-71
2022/04/22 11:38:17;;;;;;;13.47;12.23;;;;;;;15.31;53.46;96580.19;4976157;28;20741;-71
2022/04/22 11:40:47;;;;;;;13.93;12.47;;;;;;;16.12;52.15;96590.72;4976435;28;20215;-71
2022/04/22 11:43:14;;;;;;;15.47;11.57;;;;;;;16.36;51.44;96588.78;4977056;28;20214;-71
2022/04/22 11:45:44;;;;;;;11.30;10.20;;;;;;;16.35;51.17;96590.69;4975685;28;21073;-70
2022/04/22 11:48:15;;;;;;;13.43;10.50;;;;;;;16.38;50.09;96586.63;4976126;28;20254;-70
2022/04/22 11:50:44;;;;;;;12.10;10.67;;;;;;;16.36;48.78;96578.84;4976355;28;20211;-71
2022/04/22 11:53:15;;;;;;;12.33;10.70;;;;;;;16.12;48.59;96582.69;4975059;28;20214;-71
2022/04/22 11:55:43;;;;;;;11.27;10.27;;;;;;;16.21;48.92;96576.41;4976745;28;20212;-71
2022/04/22 11:58:13;;;;;;;11.77;10.57;;;;;;;16.20;48.38;96574.78;4976063;28;20230;-70
2022/04/22 12:06:13;;;;;;;11.03;10.03;;;;;;;16.32;49.26;96574.34;4974810;28;20198;-71
2022/04/22 12:09:04;;;;;;;11.53;10.53;;;;;;;15.91;49.62;96581.34;4975786;28;20286;-71
2022/04/22 12:11:31;;;;;;;12.43;11.27;;;;;;;15.78;49.04;96566.78;4975770;28;20192;-71
2022/04/22 12:13:57;;;;;;;11.97;10.87;;;;;;;16.61;48.99;96573.13;4975728;28;20216;-71
2022/04/22 12:16:33;;;;;;;11.63;10.53;;;;;;;16.96;48.25;96566.41;4975244;28;20212;-71
2022/04/22 12:19:00;;;;;;;12.27;11.13;;;;;;;16.88;48.35;96573.22;4973133;28;20209;-71
2022/04/22 12:21:32;;;;;;;13.00;10.90;;;;;;;16.54;48.23;96570.03;4972458;28;20651;-71
2022/04/22 12:24:00;;;;;;;11.10;10.10;;;;;;;16.81;48.27;96570.13;4974849;28;20215;-71
2022/04/22 12:26:28;;;;;;;12.73;10.50;;;;;;;16.69;48.74;96555.59;4975693;28;20208;-72
2022/04/22 12:29:15;;;;;;;11.03;10.03;;;;;;;17.04;49.20;96553.06;4975271;28;20306;-71
2022/04/22 12:31:47;;;;;;;13.13;10.73;;;;;;;17.19;48.42;96554.69;4975387;28;20235;-71
2022/04/22 12:34:15;;;;;;;11.73;10.53;;;;;;;17.36;47.65;96552.19;4975433;28;20204;-71
2022/04/22 12:36:53;;;;;;;11.67;10.50;;;;;;;17.46;47.82;96547.47;4975411;28;20208;-71
2022/04/22 12:39:40;;;;;;;11.73;10.50;;;;;;;17.24;47.00;96543.84;4973616;28;20206;-71